Time;durP1;ratioP1;P1;durP2;ratioP2;P2;SDS_P1;SDS_P2;PMS_P1;PMS_P2;Temp;Humidity;BMP_temperature;BMP_pressure;BME280_temperature;BME280_humidity;BME280_pressure;Samples;Min_cycle;Max_cycle;Signal;HPM_P1;HPM_P2
2023/01/21 00:02:27;;;;;;;2.53;2.00;;;;;;;;;;10092672;29;20037;-79
2023/01/21 00:07:33;;;;;;;2.50;2.15;;;;;;;;;;10096654;29;20075;-79
2023/01/21 00:12:37;;;;;;;3.00;2.20;;;;;;;;;;10091843;29;20047;-85
2023/01/21 00:17:42;;;;;;;3.33;2.58;;;;;;;;;;10104070;29;20791;-84
2023/01/21 00:22:47;;;;;;;4.47;3.38;;;;;;;;;;10103286;29;20053;-81
2023/01/21 00:27:51;;;;;;;2.90;2.55;;;;;;;;;;10105721;29;20694;-81
2023/01/21 00:32:55;;;;;;;2.35;2.10;;;;;;;;;;10091666;29;20120;-82
2023/01/21 00:37:59;;;;;;;2.72;2.20;;;;;;;;;;10103502;29;20054;-85
2023/01/21 00:43:03;;;;;;;2.67;2.17;;;;;;;;;;10105664;29;20069;-82
2023/01/21 00:48:06;;;;;;;3.50;2.85;;;;;;;;;;10103994;29;20144;-84
2023/01/21 00:53:11;;;;;;;4.38;3.22;;;;;;;;;;10093502;29;20044;-88
2023/01/21 00:58:14;;;;;;;2.92;2.28;;;;;;;;;;10096615;29;20567;-81
2023/01/21 01:03:18;;;;;;;2.70;2.42;;;;;;;;;;10098202;29;20040;-85
2023/01/21 01:08:23;;;;;;;4.07;2.33;;;;;;;;;;10085093;29;20049;-86
2023/01/21 01:13:27;;;;;;;2.55;2.08;;;;;;;;;;10099035;29;20504;-84
2023/01/21 01:18:32;;;;;;;2.15;1.95;;;;;;;;;;10125443;29;20049;-84
2023/01/21 01:23:37;;;;;;;1.70;1.60;;;;;;;;;;10106617;29;20127;-84
2023/01/21 01:28:40;;;;;;;2.05;1.85;;;;;;;;;;10085907;29;20148;-82
2023/01/21 01:33:44;;;;;;;1.83;1.70;;;;;;;;;;10116507;29;20051;-82
2023/01/21 01:38:49;;;;;;;1.80;1.65;;;;;;;;;;10100111;29;20068;-82
2023/01/21 01:43:57;;;;;;;2.10;1.80;;;;;;;;;;10102643;29;20045;-84
2023/01/21 01:49:09;;;;;;;2.42;1.95;;;;;;;;;;10103127;29;20124;-81
2023/01/21 01:54:18;;;;;;;3.03;2.30;;;;;;;;;;10109028;29;20055;-82
2023/01/21 01:59:21;;;;;;;2.38;1.75;;;;;;;;;;10099600;29;20040;-82
2023/01/21 02:04:46;;;;;;;2.28;1.77;;;;;;;;;;10116644;29;20054;-81
2023/01/21 02:09:52;;;;;;;2.73;2.10;;;;;;;;;;10078737;29;20049;-81
2023/01/21 02:14:56;;;;;;;2.80;2.47;;;;;;;;;;10062768;29;20056;-81
2023/01/21 02:20:31;;;;;;;3.42;2.70;;;;;;;;;;10066798;29;20045;-87
2023/01/21 02:25:59;;;;;;;4.45;3.05;;;;;;;;;;10075892;29;20578;-82
2023/01/21 02:31:30;;;;;;;5.97;2.70;;;;;;;;;;10063517;29;20501;-81
2023/01/21 02:36:49;;;;;;;4.78;3.25;;;;;;;;;;10082090;29;20109;-81
2023/01/21 02:42:06;;;;;;;4.20;3.33;;;;;;;;;;10064790;29;20417;-81
2023/01/21 02:47:20;;;;;;;5.45;3.70;;;;;;;;;;10088636;29;20096;-81
2023/01/21 02:52:25;;;;;;;7.95;4.95;;;;;;;;;;10077615;29;20421;-81
2023/01/21 02:57:39;;;;;;;8.43;5.43;;;;;;;;;;10064672;29;20101;-81
2023/01/21 03:03:16;;;;;;;7.28;4.25;;;;;;;;;;10059743;29;20288;-81
2023/01/21 03:08:29;;;;;;;7.22;4.45;;;;;;;;;;10067636;29;20445;-81
2023/01/21 03:19:02;;;;;;;10.48;5.40;;;;;;;;;;10074900;29;20056;-81
2023/01/21 03:24:10;;;;;;;11.13;6.65;;;;;;;;;;10093954;29;20040;-81
2023/01/21 03:29:17;;;;;;;9.77;5.45;;;;;;;;;;10078858;29;20037;-81
2023/01/21 03:34:23;;;;;;;12.25;6.90;;;;;;;;;;10082596;29;20044;-80
2023/01/21 03:39:34;;;;;;;13.18;7.78;;;;;;;;;;10083685;29;20079;-81
2023/01/21 03:44:38;;;;;;;14.20;8.02;;;;;;;;;;10065085;29;20105;-81
2023/01/21 03:49:47;;;;;;;10.30;5.50;;;;;;;;;;10063294;29;20464;-81
2023/01/21 03:54:52;;;;;;;10.25;5.35;;;;;;;;;;10066385;29;20049;-81
2023/01/21 03:59:56;;;;;;;9.80;5.63;;;;;;;;;;10073812;29;20041;-81
2023/01/21 04:04:59;;;;;;;11.45;5.85;;;;;;;;;;10072409;29;20049;-81
2023/01/21 04:10:04;;;;;;;8.50;4.85;;;;;;;;;;10075096;29;20132;-79
2023/01/21 04:15:09;;;;;;;9.47;4.93;;;;;;;;;;10083220;29;20051;-79
2023/01/21 04:20:13;;;;;;;8.60;4.60;;;;;;;;;;10087291;29;20049;-81
2023/01/21 04:25:18;;;;;;;8.10;4.82;;;;;;;;;;10093360;29;20045;-84
2023/01/21 04:30:22;;;;;;;9.30;5.17;;;;;;;;;;10107755;29;20048;-87
2023/01/21 04:35:26;;;;;;;9.57;5.32;;;;;;;;;;10110642;29;20053;-84
2023/01/21 04:40:31;;;;;;;7.22;4.72;;;;;;;;;;10087898;29;20465;-87
2023/01/21 04:45:34;;;;;;;9.53;5.07;;;;;;;;;;10105554;29;20049;-83
2023/01/21 04:50:38;;;;;;;8.77;5.00;;;;;;;;;;10099758;29;20045;-84
2023/01/21 04:55:43;;;;;;;11.02;5.93;;;;;;;;;;10103130;29;20045;-86
2023/01/21 05:00:46;;;;;;;9.27;5.60;;;;;;;;;;10094736;29;20127;-83
2023/01/21 05:05:50;;;;;;;8.88;4.65;;;;;;;;;;10120347;29;20063;-84
2023/01/21 05:10:55;;;;;;;7.85;4.88;;;;;;;;;;10104180;29;20048;-86
2023/01/21 05:16:04;;;;;;;8.70;4.43;;;;;;;;;;10094554;29;20045;-80
2023/01/21 05:21:08;;;;;;;8.95;4.85;;;;;;;;;;10096742;29;20045;-81
2023/01/21 05:26:13;;;;;;;6.18;4.00;;;;;;;;;;10100962;29;20052;-81
2023/01/21 05:31:17;;;;;;;6.82;3.88;;;;;;;;;;10098969;29;20053;-81
2023/01/21 05:36:20;;;;;;;5.95;3.25;;;;;;;;;;10096944;29;20053;-84
2023/01/21 05:41:25;;;;;;;6.22;3.60;;;;;;;;;;10090870;29;20049;-86
2023/01/21 05:46:29;;;;;;;7.10;3.88;;;;;;;;;;10090310;29;20094;-81
2023/01/21 05:51:32;;;;;;;11.00;4.80;;;;;;;;;;10092417;29;20044;-85
2023/01/21 05:56:37;;;;;;;7.28;4.50;;;;;;;;;;10110759;29;20123;-83
2023/01/21 06:01:40;;;;;;;8.20;4.60;;;;;;;;;;10093214;29;20043;-81
2023/01/21 06:06:44;;;;;;;7.95;4.70;;;;;;;;;;10075595;29;20131;-81
2023/01/21 06:11:48;;;;;;;7.68;4.63;;;;;;;;;;10064601;29;20041;-84
2023/01/21 06:16:52;;;;;;;5.57;3.65;;;;;;;;;;10084450;29;20156;-86
2023/01/21 06:21:55;;;;;;;8.88;4.32;;;;;;;;;;10070175;29;20387;-82
2023/01/21 06:27:00;;;;;;;7.47;4.15;;;;;;;;;;10097508;29;20052;-81
2023/01/21 06:32:04;;;;;;;6.88;4.05;;;;;;;;;;10093876;29;20055;-84
2023/01/21 06:37:08;;;;;;;6.25;3.78;;;;;;;;;;10103877;29;20096;-83
2023/01/21 06:42:13;;;;;;;7.07;3.95;;;;;;;;;;10099511;29;20084;-83
2023/01/21 06:47:16;;;;;;;8.23;4.65;;;;;;;;;;10093294;29;20076;-84
2023/01/21 06:52:20;;;;;;;10.02;6.05;;;;;;;;;;10092657;29;20421;-83
2023/01/21 06:57:25;;;;;;;8.52;5.05;;;;;;;;;;10104526;29;20048;-82
2023/01/21 07:02:28;;;;;;;8.80;5.20;;;;;;;;;;10104249;29;20123;-81
2023/01/21 07:07:32;;;;;;;7.95;4.70;;;;;;;;;;10109279;29;20056;-81
2023/01/21 07:12:37;;;;;;;9.48;5.30;;;;;;;;;;10103795;29;20052;-82
2023/01/21 07:17:40;;;;;;;8.57;4.40;;;;;;;;;;10099964;29;20048;-82
2023/01/21 07:22:43;;;;;;;8.10;4.60;;;;;;;;;;10091310;29;20045;-82
2023/01/21 07:27:48;;;;;;;9.02;4.32;;;;;;;;;;10119027;29;20467;-82
2023/01/21 07:32:52;;;;;;;19.38;8.73;;;;;;;;;;10092298;29;20053;-82
2023/01/21 07:37:55;;;;;;;9.88;5.80;;;;;;;;;;10107073;29;20243;-82
2023/01/21 07:43:00;;;;;;;21.58;8.98;;;;;;;;;;10118825;29;20041;-81
2023/01/21 07:48:06;;;;;;;11.27;5.97;;;;;;;;;;10104919;29;20730;-81
2023/01/21 07:53:10;;;;;;;30.05;10.32;;;;;;;;;;10093498;29;20516;-81
2023/01/21 07:58:15;;;;;;;22.35;9.27;;;;;;;;;;10095200;29;20674;-81
2023/01/21 08:03:20;;;;;;;15.80;6.50;;;;;;;;;;10083521;29;20072;-83
2023/01/21 08:08:24;;;;;;;16.85;7.50;;;;;;;;;;10093093;29;20112;-81
2023/01/21 08:13:30;;;;;;;10.27;6.05;;;;;;;;;;10089500;29;20119;-82
2023/01/21 08:18:39;;;;;;;8.95;5.35;;;;;;;;;;10081168;29;20047;-87
2023/01/21 08:23:45;;;;;;;7.07;4.18;;;;;;;;;;10066650;29;20114;-85
2023/01/21 08:28:53;;;;;;;9.15;5.10;;;;;;;;;;10070415;29;20063;-85
2023/01/21 08:33:58;;;;;;;8.32;5.35;;;;;;;;;;10071921;29;20057;-88
2023/01/21 08:39:02;;;;;;;9.35;5.15;;;;;;;;;;10083148;29;20186;-86
2023/01/21 08:44:10;;;;;;;;;;;;;;;;;;10098478;29;20104;-87
2023/01/21 08:49:18;;;;;;;11.73;6.10;;;;;;;;;;10099509;29;19935;-86
2023/01/21 08:54:22;;;;;;;10.48;5.75;;;;;;;;;;10085995;29;20045;-85
2023/01/21 08:59:28;;;;;;;7.03;4.72;;;;;;;;;;10070368;29;20052;-85
2023/01/21 09:04:33;;;;;;;12.35;6.63;;;;;;;;;;10083715;29;20049;-86
2023/01/21 09:09:37;;;;;;;10.98;5.95;;;;;;;;;;10068550;29;20052;-86
2023/01/21 09:14:42;;;;;;;11.57;6.10;;;;;;;;;;10094723;29;20052;-86
2023/01/21 09:19:45;;;;;;;9.60;5.78;;;;;;;;;;10079841;29;20125;-86
2023/01/21 09:24:51;;;;;;;11.35;6.40;;;;;;;;;;10111107;29;20136;-89
2023/01/21 09:29:56;;;;;;;10.77;5.60;;;;;;;;;;10106873;29;20543;-90
2023/01/21 09:35:00;;;;;;;8.70;5.20;;;;;;;;;;10102854;29;20157;-89
2023/01/21 09:40:05;;;;;;;9.60;4.35;;;;;;;;;;10096934;29;20470;-89
2023/01/21 09:45:14;;;;;;;8.60;4.47;;;;;;;;;;10079421;29;20402;-90
2023/01/21 09:50:22;;;;;;;10.48;6.00;;;;;;;;;;10100366;29;20044;-90
2023/01/21 09:55:41;;;;;;;9.85;5.80;;;;;;;;;;10113178;29;20098;-89
2023/01/21 10:00:52;;;;;;;9.50;4.93;;;;;;;;;;10098166;29;20049;-88
2023/01/21 10:06:21;;;;;;;7.78;4.60;;;;;;;;;;10109617;29;20108;-90
2023/01/21 10:11:36;;;;;;;13.95;7.57;;;;;;;;;;10110341;29;20048;-87
2023/01/21 10:16:46;;;;;;;9.63;5.78;;;;;;;;;;10101027;29;20033;-86
2023/01/21 10:21:56;;;;;;;12.93;6.95;;;;;;;;;;10104795;29;20043;-85
2023/01/21 10:27:01;;;;;;;11.90;6.07;;;;;;;;;;10090772;29;20045;-84
2023/01/21 10:32:15;;;;;;;8.60;4.63;;;;;;;;;;10078474;29;20245;-87
2023/01/21 10:37:33;;;;;;;11.35;5.75;;;;;;;;;;10078905;29;20387;-87
2023/01/21 10:42:51;;;;;;;10.45;5.15;;;;;;;;;;10085191;29;20077;-87
2023/01/21 10:48:11;;;;;;;11.35;5.47;;;;;;;;;;10086975;29;20051;-87
2023/01/21 10:53:22;;;;;;;7.57;4.28;;;;;;;;;;10085830;29;20049;-84
2023/01/21 10:58:30;;;;;;;7.32;3.85;;;;;;;;;;10078205;29;20057;-84
2023/01/21 11:03:41;;;;;;;6.07;4.07;;;;;;;;;;10106552;29;20669;-87
2023/01/21 11:08:48;;;;;;;6.47;3.33;;;;;;;;;;10091777;29;20064;-87
2023/01/21 11:13:52;;;;;;;5.07;3.25;;;;;;;;;;10104444;29;20072;-85
2023/01/21 11:18:57;;;;;;;6.85;3.90;;;;;;;;;;10068346;29;20741;-84
2023/01/21 11:24:02;;;;;;;7.72;4.20;;;;;;;;;;10090374;29;20409;-85
2023/01/21 11:29:12;;;;;;;6.80;4.20;;;;;;;;;;10081533;29;20048;-85
2023/01/21 11:34:20;;;;;;;6.80;3.97;;;;;;;;;;10084713;29;20045;-85
2023/01/21 11:39:24;;;;;;;14.63;6.90;;;;;;;;;;10094705;29;20508;-85
2023/01/21 11:44:28;;;;;;;18.20;8.38;;;;;;;;;;10064729;29;20048;-85
2023/01/21 11:49:33;;;;;;;12.45;6.50;;;;;;;;;;10069701;29;20083;-85
2023/01/21 11:54:39;;;;;;;10.53;5.13;;;;;;;;;;10088698;29;20059;-87
2023/01/21 11:59:46;;;;;;;11.20;7.18;;;;;;;;;;10098123;29;20041;-87
2023/01/21 12:04:56;;;;;;;10.07;4.90;;;;;;;;;;10098690;29;20033;-85
2023/01/21 12:10:06;;;;;;;9.05;5.40;;;;;;;;;;10094641;29;20052;-85
2023/01/21 12:15:24;;;;;;;6.93;4.18;;;;;;;;;;10092935;29;20052;-84
2023/01/21 12:20:42;;;;;;;8.57;4.25;;;;;;;;;;10058270;29;20266;-85
2023/01/21 12:25:53;;;;;;;6.85;3.67;;;;;;;;;;10098336;29;20460;-88
2023/01/21 12:31:08;;;;;;;7.57;3.60;;;;;;;;;;10066399;29;20048;-85
2023/01/21 12:36:20;;;;;;;6.05;3.45;;;;;;;;;;10099507;29;20118;-85
2023/01/21 12:41:27;;;;;;;5.75;3.78;;;;;;;;;;10078754;29;20049;-87
2023/01/21 12:46:39;;;;;;;6.80;4.00;;;;;;;;;;10072753;29;20037;-87
2023/01/21 12:51:49;;;;;;;5.82;3.67;;;;;;;;;;10075735;29;20076;-85
2023/01/21 12:56:58;;;;;;;6.65;4.15;;;;;;;;;;10087467;29;20071;-86
2023/01/21 13:02:19;;;;;;;6.20;3.42;;;;;;;;;;10062386;29;20061;-86
2023/01/21 13:07:34;;;;;;;6.03;3.78;;;;;;;;;;10072314;29;20078;-90
2023/01/21 13:12:39;;;;;;;6.85;3.63;;;;;;;;;;10068248;29;20473;-85
2023/01/21 13:17:48;;;;;;;6.57;3.70;;;;;;;;;;10076338;29;20085;-85
2023/01/21 13:23:11;;;;;;;7.28;4.68;;;;;;;;;;10081256;29;20172;-85
2023/01/21 13:28:22;;;;;;;7.40;4.93;;;;;;;;;;10073079;29;20044;-85
2023/01/21 13:33:50;;;;;;;8.00;4.32;;;;;;;;;;10075224;29;20282;-85
2023/01/21 13:39:04;;;;;;;6.03;4.43;;;;;;;;;;10082067;29;20504;-85
2023/01/21 13:44:41;;;;;;;5.60;3.53;;;;;;;;;;10097088;29;20060;-88
2023/01/21 13:49:57;;;;;;;6.63;3.63;;;;;;;;;;10101270;29;20051;-85
2023/01/21 13:55:25;;;;;;;5.55;3.42;;;;;;;;;;10096353;29;20104;-88
2023/01/21 14:00:39;;;;;;;6.70;4.07;;;;;;;;;;10108637;29;20564;-86
2023/01/21 14:05:48;;;;;;;5.20;3.85;;;;;;;;;;10082823;29;20040;-85
2023/01/21 14:11:02;;;;;;;4.72;3.20;;;;;;;;;;10094705;29;20040;-86
2023/01/21 14:16:39;;;;;;;7.43;4.10;;;;;;;;;;10118018;29;20132;-86
2023/01/21 14:22:01;;;;;;;5.10;3.63;;;;;;;;;;10055232;29;20072;-85
2023/01/21 14:27:16;;;;;;;5.85;3.33;;;;;;;;;;10097185;29;20053;-85
2023/01/21 14:32:26;;;;;;;4.97;2.90;;;;;;;;;;10104798;29;20048;-85
2023/01/21 14:37:36;;;;;;;4.03;2.95;;;;;;;;;;10078751;29;20052;-90
2023/01/21 14:42:48;;;;;;;2.90;2.33;;;;;;;;;;10088682;29;20055;-89
2023/01/21 14:48:00;;;;;;;3.45;2.55;;;;;;;;;;10072818;29;20583;-86
2023/01/21 14:53:11;;;;;;;3.40;2.90;;;;;;;;;;10086584;29;20663;-86
2023/01/21 14:58:23;;;;;;;4.28;2.80;;;;;;;;;;10075898;29;20063;-85
2023/01/21 15:03:30;;;;;;;2.67;2.08;;;;;;;;;;10069331;29;20056;-88
2023/01/21 15:08:42;;;;;;;4.18;2.70;;;;;;;;;;10084476;29;20055;-88
2023/01/21 15:13:58;;;;;;;15.52;7.35;;;;;;;;;;10074100;29;20053;-85
2023/01/21 15:19:35;;;;;;;11.15;5.82;;;;;;;;;;10073142;29;20072;-85
2023/01/21 15:25:28;;;;;;;9.43;5.57;;;;;;;;;;9960301;29;20522;-87
2023/01/21 15:30:56;;;;;;;11.10;5.55;;;;;;;;;;10074994;29;20046;-88
2023/01/21 15:36:07;;;;;;;9.60;5.03;;;;;;;;;;10085933;29;20128;-90
2023/01/21 15:41:27;;;;;;;6.75;3.70;;;;;;;;;;10092983;29;20059;-89
2023/01/21 15:46:48;;;;;;;7.65;4.07;;;;;;;;;;10104853;29;20055;-89
2023/01/21 15:52:02;;;;;;;5.85;3.60;;;;;;;;;;10078427;29;20093;-91
2023/01/21 15:57:18;;;;;;;6.38;3.20;;;;;;;;;;10095359;29;20045;-91
2023/01/21 16:02:33;;;;;;;5.45;3.78;;;;;;;;;;10099099;29;20084;-86
2023/01/21 16:07:49;;;;;;;6.22;4.45;;;;;;;;;;10073800;29;20049;-86
2023/01/21 16:13:09;;;;;;;4.22;2.83;;;;;;;;;;10097753;29;20136;-84
2023/01/21 16:18:24;;;;;;;2.28;2.03;;;;;;;;;;10082421;29;20072;-81
2023/01/21 16:23:34;;;;;;;7.78;3.30;;;;;;;;;;10107067;29;20052;-81
2023/01/21 16:28:42;;;;;;;4.88;2.95;;;;;;;;;;10108531;29;20082;-85
2023/01/21 16:33:47;;;;;;;3.83;2.50;;;;;;;;;;10080026;29;20041;-85
2023/01/21 16:38:52;;;;;;;3.97;2.40;;;;;;;;;;10105768;29;20048;-84
2023/01/21 16:43:58;;;;;;;8.70;4.25;;;;;;;;;;10074994;29;20100;-87
2023/01/21 16:49:04;;;;;;;;;;;;;;;;;;10082703;29;20258;-85
2023/01/21 16:54:27;;;;;;;6.80;3.85;;;;;;;;;;10086901;29;20439;-81
2023/01/21 16:59:38;;;;;;;5.53;2.92;;;;;;;;;;10083374;29;20055;-86
2023/01/21 17:04:45;;;;;;;7.25;4.78;;;;;;;;;;10076130;29;20393;-84
2023/01/21 17:09:55;;;;;;;5.60;3.55;;;;;;;;;;10078240;29;20060;-84
2023/01/21 17:15:05;;;;;;;4.05;2.75;;;;;;;;;;10078343;29;20124;-85
2023/01/21 17:20:36;;;;;;;5.45;3.50;;;;;;;;;;10088276;29;20049;-85
2023/01/21 17:25:43;;;;;;;5.32;3.20;;;;;;;;;;10080890;29;20580;-82
2023/01/21 17:30:46;;;;;;;;;;;;;;;;;;10101155;29;20041;-85
2023/01/21 17:41:51;;;;;;;4.63;3.38;;;;;;;;;;10589142;27;20413;-81
2023/01/21 17:46:55;;;;;;;4.97;3.00;;;;;;;;;;10550854;28;20139;-81
2023/01/21 17:51:59;;;;;;;5.00;3.00;;;;;;;;;;10542696;28;20105;-80
2023/01/21 17:57:03;;;;;;;4.80;3.10;;;;;;;;;;10558082;28;20054;-80
2023/01/21 18:02:11;;;;;;;3.08;2.33;;;;;;;;;;10553451;28;20074;-81
2023/01/21 18:07:21;;;;;;;7.07;3.67;;;;;;;;;;10568431;27;20040;-81
2023/01/21 18:12:27;;;;;;;6.65;3.55;;;;;;;;;;10553129;27;20286;-86
2023/01/21 18:17:30;;;;;;;6.70;4.25;;;;;;;;;;10577809;28;20048;-86
2023/01/21 18:22:34;;;;;;;11.85;7.00;;;;;;;;;;10571085;28;20062;-80
2023/01/21 18:27:40;;;;;;;19.20;11.07;;;;;;;;;;10556916;28;20100;-81
2023/01/21 18:32:44;;;;;;;23.25;11.38;;;;;;;;;;10547788;28;20051;-85
2023/01/21 18:37:48;;;;;;;16.20;8.45;;;;;;;;;;10519772;27;20105;-84
2023/01/21 18:42:55;;;;;;;11.60;6.15;;;;;;;;;;10472418;28;20059;-86
2023/01/21 18:47:58;;;;;;;13.20;7.90;;;;;;;;;;10467492;28;20090;-84
2023/01/21 18:53:06;;;;;;;8.50;5.05;;;;;;;;;;10437332;28;20044;-87
2023/01/21 18:58:13;;;;;;;9.35;5.80;;;;;;;;;;10462630;28;20064;-83
2023/01/21 19:03:17;;;;;;;8.80;5.55;;;;;;;;;;10441272;28;20503;-87
2023/01/21 19:08:25;;;;;;;5.22;4.00;;;;;;;;;;10462488;28;20661;-81
2023/01/21 19:13:30;;;;;;;9.35;5.03;;;;;;;;;;10435526;28;20045;-81
2023/01/21 19:18:34;;;;;;;8.60;4.57;;;;;;;;;;10427449;28;20060;-84
2023/01/21 19:23:38;;;;;;;7.72;4.35;;;;;;;;;;10447016;28;20549;-85
2023/01/21 19:28:46;;;;;;;8.73;4.63;;;;;;;;;;10443663;28;20048;-86
2023/01/21 19:33:50;;;;;;;7.15;4.50;;;;;;;;;;10452213;28;20038;-83
2023/01/21 19:38:55;;;;;;;5.60;3.65;;;;;;;;;;10453016;28;20048;-81
2023/01/21 19:44:00;;;;;;;4.70;2.65;;;;;;;;;;10466970;28;20131;-84
2023/01/21 19:49:13;;;;;;;7.65;4.35;;;;;;;;;;10449466;28;20064;-83
2023/01/21 19:54:19;;;;;;;6.93;3.97;;;;;;;;;;10447174;28;20631;-81
2023/01/21 19:59:24;;;;;;;7.80;4.03;;;;;;;;;;10451578;28;20029;-81
2023/01/21 20:04:28;;;;;;;7.32;3.63;;;;;;;;;;10456204;28;20514;-81
2023/01/21 20:09:32;;;;;;;5.18;3.00;;;;;;;;;;10445213;28;20051;-85
2023/01/21 20:14:37;;;;;;;12.30;7.35;;;;;;;;;;10458638;28;20135;-83
2023/01/21 20:19:41;;;;;;;9.38;5.72;;;;;;;;;;10449696;28;20056;-87
2023/01/21 20:24:47;;;;;;;6.43;3.80;;;;;;;;;;10445914;28;20044;-87
2023/01/21 20:29:52;;;;;;;6.93;3.72;;;;;;;;;;10455777;28;20049;-82
2023/01/21 20:35:06;;;;;;;8.35;3.90;;;;;;;;;;10454394;28;20056;-81
2023/01/21 20:40:16;;;;;;;8.00;4.32;;;;;;;;;;10445168;28;20128;-84
2023/01/21 20:45:27;;;;;;;7.93;5.25;;;;;;;;;;10457116;28;20055;-81
2023/01/21 20:50:34;;;;;;;8.48;5.22;;;;;;;;;;10440663;28;20487;-86
2023/01/21 20:55:38;;;;;;;7.32;4.57;;;;;;;;;;10449867;28;20555;-82
2023/01/21 21:00:44;;;;;;;11.40;5.80;;;;;;;;;;10461705;28;20033;-81
2023/01/21 21:05:49;;;;;;;10.93;5.78;;;;;;;;;;10463340;28;20179;-84
2023/01/21 21:10:54;;;;;;;7.68;4.30;;;;;;;;;;10467840;28;20037;-81
2023/01/21 21:15:59;;;;;;;8.38;4.60;;;;;;;;;;10448820;28;20048;-82
2023/01/21 21:21:03;;;;;;;6.18;3.80;;;;;;;;;;10459637;28;20119;-84
2023/01/21 21:26:15;;;;;;;8.45;4.15;;;;;;;;;;10457466;28;20127;-81
2023/01/21 21:31:21;;;;;;;13.15;8.10;;;;;;;;;;10461790;28;20139;-87
2023/01/21 21:36:25;;;;;;;10.20;6.05;;;;;;;;;;10443522;28;20049;-88
2023/01/21 21:52:16;;;;;;;12.68;6.03;;;;;;;;;;10445656;28;20040;-81
2023/01/21 21:57:19;;;;;;;11.57;6.03;;;;;;;;;;10436301;28;20124;-83
2023/01/21 22:02:25;;;;;;;9.73;5.63;;;;;;;;;;10448995;28;20767;-85
2023/01/21 22:07:29;;;;;;;21.93;11.80;;;;;;;;;;10429074;28;20063;-83
2023/01/21 22:12:33;;;;;;;11.50;7.40;;;;;;;;;;10455189;28;20785;-88
2023/01/21 22:17:38;;;;;;;14.32;7.85;;;;;;;;;;10441540;28;20051;-86
2023/01/21 22:22:42;;;;;;;9.77;5.60;;;;;;;;;;10475800;28;20569;-81
2023/01/21 22:27:46;;;;;;;8.73;3.95;;;;;;;;;;10448840;28;20057;-84
2023/01/21 22:32:50;;;;;;;7.88;4.53;;;;;;;;;;10469341;28;20039;-84
2023/01/21 22:37:54;;;;;;;12.75;7.18;;;;;;;;;;10448054;28;20127;-82
2023/01/21 22:42:58;;;;;;;14.95;8.57;;;;;;;;;;10466202;28;20724;-84
2023/01/21 22:48:03;;;;;;;12.27;6.05;;;;;;;;;;10461010;28;20561;-82
2023/01/21 22:53:07;;;;;;;7.73;5.07;;;;;;;;;;10453648;28;20538;-81
2023/01/21 22:58:11;;;;;;;14.30;5.75;;;;;;;;;;10462914;28;20497;-81
2023/01/21 23:03:16;;;;;;;7.53;4.22;;;;;;;;;;10430425;28;20044;-81
2023/01/21 23:08:22;;;;;;;8.02;4.30;;;;;;;;;;10459638;28;20045;-82
2023/01/21 23:13:25;;;;;;;10.57;5.63;;;;;;;;;;10453898;28;20044;-81
2023/01/21 23:18:31;;;;;;;10.43;5.60;;;;;;;;;;10447059;28;20155;-81
2023/01/21 23:23:36;;;;;;;14.17;7.33;;;;;;;;;;10480089;28;20160;-81
2023/01/21 23:28:40;;;;;;;12.38;6.68;;;;;;;;;;10461236;28;20050;-81
2023/01/21 23:33:48;;;;;;;11.20;6.50;;;;;;;;;;10443398;28;20049;-82
2023/01/21 23:38:51;;;;;;;9.18;5.38;;;;;;;;;;10457369;28;20053;-81
2023/01/21 23:43:58;;;;;;;11.10;5.30;;;;;;;;;;10465055;28;20064;-81
2023/01/21 23:49:03;;;;;;;12.40;6.30;;;;;;;;;;10461776;28;20041;-84
2023/01/21 23:54:07;;;;;;;7.82;4.88;;;;;;;;;;10467135;28;20299;-81
2023/01/21 23:59:10;;;;;;;9.35;5.35;;;;;;;;;;10459699;28;20041;-82
